createdAt,value
2019-03-25T00:00:42.211Z,60.58
2019-03-25T00:03:15.597Z,63.55
2019-03-25T00:05:48.436Z,66.07
2019-03-25T00:08:19.447Z,71.15
2019-03-25T00:10:50.762Z,71.53
2019-03-25T00:13:22.873Z,68.57
2019-03-25T00:15:56.418Z,71.92
2019-03-25T00:18:28.531Z,74.40
2019-03-25T00:21:00.135Z,81.35
2019-03-25T00:23:31.243Z,82.72
2019-03-25T00:26:02.544Z,89.55
2019-03-25T00:28:35.415Z,89.70
2019-03-25T00:31:06.763Z,93.40
2019-03-25T00:33:37.955Z,94.72
2019-03-25T00:36:09.224Z,108.87
2019-03-25T00:38:40.271Z,100.07
2019-03-25T00:41:11.291Z,105.37
2019-03-25T00:43:42.524Z,108.50
2019-03-25T00:46:13.708Z,114.72
2019-03-25T00:48:44.772Z,100.87
2019-03-25T00:51:16.975Z,103.17
2019-03-25T00:53:48.164Z,104.45
2019-03-25T00:56:19.407Z,103.80
2019-03-25T00:58:50.575Z,99.20
2019-03-25T01:01:21.807Z,93.55
2019-03-25T01:03:52.894Z,105.75
2019-03-25T01:06:24.083Z,96.32
2019-03-25T01:08:55.396Z,92.80
2019-03-25T01:11:26.526Z,94.50
2019-03-25T01:13:57.835Z,104.45
2019-03-25T01:16:29.268Z,121.70
2019-03-25T01:19:00.526Z,123.80
2019-03-25T01:21:31.733Z,122.22
2019-03-25T01:24:02.834Z,111.47
2019-03-25T01:26:34.111Z,106.95
2019-03-25T01:29:05.202Z,118.28
2019-03-25T01:31:36.485Z,121.55
2019-03-25T01:34:07.586Z,112.77
2019-03-25T01:36:38.857Z,115.22
2019-03-25T01:39:11.114Z,115.15
2019-03-25T01:41:42.155Z,111.37
2019-03-25T01:44:14.229Z,104.72
2019-03-25T01:46:46.522Z,108.90
2019-03-25T01:49:17.623Z,106.65
2019-03-25T01:51:48.809Z,100.45
2019-03-25T01:54:20.116Z,110.68
2019-03-25T01:56:52.407Z,99.97
2019-03-25T01:59:23.503Z,104.90
2019-03-25T02:01:54.622Z,102.70
2019-03-25T02:04:25.761Z,105.70
2019-03-25T02:06:56.797Z,106.20
2019-03-25T02:09:27.854Z,104.45
2019-03-25T02:11:59.306Z,102.95
2019-03-25T02:14:33.282Z,95.15
2019-03-25T02:17:04.439Z,104.80
2019-03-25T02:19:35.557Z,109.30
2019-03-25T02:22:06.659Z,105.43
2019-03-25T02:24:37.743Z,101.87
2019-03-25T02:27:09.046Z,99.77
2019-03-25T02:29:40.068Z,99.92
2019-03-25T02:32:13.921Z,101.07
2019-03-25T02:34:44.076Z,101.85
2019-03-25T02:37:15.303Z,107.78
2019-03-25T02:39:46.741Z,101.70
2019-03-25T02:42:17.745Z,104.05
2019-03-25T02:44:48.898Z,100.22
2019-03-25T02:47:20.314Z,104.78
2019-03-25T02:49:51.427Z,99.85
2019-03-25T02:52:22.498Z,102.27
2019-03-25T02:54:53.597Z,106.95
2019-03-25T02:57:24.747Z,112.25
2019-03-25T02:59:55.844Z,105.30
2019-03-25T03:02:26.912Z,107.90
2019-03-25T03:04:58.064Z,103.22
2019-03-25T03:07:29.234Z,101.12
2019-03-25T03:10:00.614Z,104.95
2019-03-25T03:12:31.649Z,100.90
2019-03-25T03:15:02.749Z,100.40
2019-03-25T03:17:34.561Z,109.32
2019-03-25T03:20:07.173Z,95.12
2019-03-25T03:22:40.320Z,109.67
2019-03-25T03:25:11.483Z,104.00
2019-03-25T03:27:43.673Z,99.85
2019-03-25T03:30:15.160Z,106.85
2019-03-25T03:32:46.504Z,104.17
2019-03-25T03:35:17.880Z,109.03
2019-03-25T03:37:48.970Z,107.78
2019-03-25T03:40:20.080Z,104.90
2019-03-25T03:42:51.152Z,106.32
2019-03-25T03:45:22.295Z,102.15
2019-03-25T03:47:53.454Z,109.57
2019-03-25T03:50:26.382Z,109.05
2019-03-25T03:52:57.865Z,111.20
2019-03-25T03:55:29.033Z,102.67
2019-03-25T03:58:00.097Z,118.70
2019-03-25T04:00:32.843Z,114.15
2019-03-25T04:03:03.854Z,121.70
2019-03-25T04:05:34.997Z,118.77
2019-03-25T04:08:06.244Z,122.28
2019-03-25T04:10:37.375Z,131.63
2019-03-25T04:13:08.353Z,114.37
2019-03-25T04:15:39.730Z,119.05
2019-03-25T04:18:10.994Z,128.05
2019-03-25T04:20:42.020Z,122.02
2019-03-25T04:23:13.125Z,134.30
2019-03-25T04:25:44.177Z,127.70
2019-03-25T04:28:15.327Z,134.95
2019-03-25T04:30:46.436Z,143.60
2019-03-25T04:33:17.958Z,137.65
2019-03-25T04:35:49.027Z,131.35
2019-03-25T04:38:20.038Z,135.40
2019-03-25T04:40:51.199Z,151.65
2019-03-25T04:43:22.703Z,135.55
2019-03-25T04:45:53.993Z,151.10
2019-03-25T04:48:25.198Z,150.18
2019-03-25T04:50:56.379Z,139.20
2019-03-25T04:53:27.513Z,134.27
2019-03-25T04:56:01.912Z,138.85
2019-03-25T04:58:33.044Z,139.75
2019-03-25T05:01:04.119Z,142.15
2019-03-25T05:03:35.083Z,142.50
2019-03-25T05:06:07.262Z,142.07
2019-03-25T05:08:38.337Z,139.75
2019-03-25T05:11:11.779Z,139.85
2019-03-25T05:13:43.008Z,141.97
2019-03-25T05:16:15.197Z,150.10
2019-03-25T05:18:46.380Z,148.20
2019-03-25T05:21:17.667Z,142.03
2019-03-25T05:23:50.139Z,134.90
2019-03-25T05:26:21.350Z,140.75
2019-03-25T05:28:52.783Z,138.18
2019-03-25T05:31:24.978Z,127.67
2019-03-25T05:33:56.250Z,115.77
2019-03-25T05:36:27.716Z,112.42
2019-03-25T05:38:58.884Z,106.90
2019-03-25T05:41:29.851Z,116.75
2019-03-25T05:44:01.001Z,112.08
2019-03-25T05:46:32.234Z,96.85
2019-03-25T05:49:03.533Z,98.37
2019-03-25T05:51:34.730Z,93.92
2019-03-25T05:54:05.842Z,88.95
2019-03-25T05:56:36.951Z,83.70
2019-03-25T05:59:08.013Z,79.80
2019-03-25T06:01:39.093Z,84.40
2019-03-25T06:04:10.082Z,82.00
2019-03-25T06:06:41.207Z,83.17
2019-03-25T06:09:14.115Z,75.42
2019-03-25T06:11:45.219Z,81.53
2019-03-25T06:14:16.237Z,75.10
2019-03-25T06:16:47.472Z,83.30
2019-03-25T06:19:18.780Z,78.83
2019-03-25T06:21:51.055Z,81.12
2019-03-25T06:24:22.131Z,78.22
2019-03-25T06:26:53.349Z,75.12
2019-03-25T06:29:26.062Z,75.55
2019-03-25T06:31:57.187Z,79.03
2019-03-25T06:34:28.164Z,73.67
2019-03-25T06:37:01.183Z,77.08
2019-03-25T06:39:32.303Z,79.90
2019-03-25T06:42:03.465Z,80.45
2019-03-25T06:44:34.810Z,73.35
2019-03-25T06:47:05.983Z,66.35
2019-03-25T06:49:37.166Z,70.70
2019-03-25T06:52:08.284Z,74.12
2019-03-25T06:54:39.296Z,72.00
2019-03-25T06:57:10.361Z,91.80
2019-03-25T06:59:41.454Z,67.90
2019-03-25T07:02:12.495Z,73.67
2019-03-25T07:04:43.607Z,70.62
2019-03-25T07:07:14.691Z,74.25
2019-03-25T07:09:45.720Z,72.82
2019-03-25T07:12:16.957Z,69.58
2019-03-25T07:14:48.129Z,66.10
2019-03-25T07:17:21.410Z,64.27
2019-03-25T07:19:53.588Z,64.15
2019-03-25T07:22:24.751Z,62.45
2019-03-25T07:24:55.952Z,60.48
2019-03-25T07:27:36.377Z,55.90
2019-03-25T07:29:59.844Z,59.90
2019-03-25T07:32:30.998Z,58.87
2019-03-25T07:35:02.036Z,67.20
2019-03-25T07:37:33.126Z,74.07
2019-03-25T07:40:07.756Z,58.25
2019-03-25T07:42:39.010Z,67.97
2019-03-25T07:45:10.113Z,63.30
2019-03-25T07:47:41.330Z,63.20
2019-03-25T07:50:12.501Z,57.73
2019-03-25T07:52:43.726Z,63.05
2019-03-25T07:55:14.738Z,59.13
2019-03-25T07:57:48.609Z,55.33
2019-03-25T08:00:20.404Z,51.98
2019-03-25T08:02:51.581Z,56.13
2019-03-25T08:05:22.849Z,58.42
2019-03-25T08:07:53.890Z,45.83
2019-03-25T08:10:34.980Z,40.67
2019-03-25T08:13:06.063Z,27.52
2019-03-25T08:15:37.231Z,21.50
2019-03-25T08:18:08.398Z,20.50
2019-03-25T08:20:39.536Z,20.95
2019-03-25T08:23:10.697Z,19.55
2019-03-25T08:25:41.706Z,18.25
2019-03-25T08:28:12.969Z,20.35
2019-03-25T08:30:44.041Z,17.85
2019-03-25T08:33:15.158Z,17.10
2019-03-25T08:35:46.278Z,17.95
2019-03-25T08:38:17.514Z,17.73
2019-03-25T08:40:49.735Z,15.63
2019-03-25T08:43:21.320Z,16.48
2019-03-25T08:45:52.538Z,15.53
2019-03-25T08:48:24.145Z,16.87
2019-03-25T08:50:58.079Z,17.48
2019-03-25T08:53:29.300Z,16.67
2019-03-25T08:56:00.501Z,19.17
2019-03-25T08:58:31.715Z,17.87
2019-03-25T09:01:02.874Z,18.52
2019-03-25T09:03:33.975Z,15.78
2019-03-25T09:06:05.070Z,20.55
2019-03-25T09:08:36.305Z,21.65
2019-03-25T09:11:07.370Z,46.18
2019-03-25T09:13:38.509Z,18.02
2019-03-25T09:16:09.558Z,16.37
2019-03-25T09:18:40.967Z,16.93
2019-03-25T09:21:12.132Z,21.23
2019-03-25T09:23:43.160Z,22.10
2019-03-25T09:26:14.272Z,21.52
2019-03-25T09:28:45.260Z,22.07
2019-03-25T09:31:16.763Z,23.55
2019-03-25T09:33:49.439Z,20.40
2019-03-25T09:36:20.559Z,17.62
2019-03-25T09:38:51.687Z,17.85
2019-03-25T09:41:24.442Z,16.73
2019-03-25T09:43:55.499Z,19.48
2019-03-25T09:46:26.598Z,17.70
2019-03-25T09:48:57.771Z,16.02
2019-03-25T09:51:28.885Z,17.62
2019-03-25T09:53:59.965Z,15.78
2019-03-25T09:56:31.099Z,14.55
2019-03-25T09:59:02.335Z,16.17
2019-03-25T10:01:34.630Z,15.23
2019-03-25T10:04:05.826Z,13.70
2019-03-25T10:06:37.046Z,18.25
2019-03-25T10:09:09.823Z,14.80
2019-03-25T10:11:40.955Z,13.00
2019-03-25T10:14:11.981Z,15.10
2019-03-25T10:16:43.068Z,16.25
2019-03-25T10:19:14.095Z,18.35
2019-03-25T10:21:45.091Z,15.05
2019-03-25T10:24:17.314Z,19.37
2019-03-25T10:26:48.436Z,16.20
2019-03-25T10:29:19.598Z,14.90
2019-03-25T10:31:50.657Z,15.53
2019-03-25T10:34:21.913Z,18.60
2019-03-25T10:36:53.233Z,16.50
2019-03-25T10:39:24.323Z,16.62
2019-03-25T10:41:55.409Z,17.57
2019-03-25T10:44:26.590Z,15.75
2019-03-25T10:46:57.722Z,34.48
2019-03-25T10:49:28.983Z,16.23
2019-03-25T10:51:59.986Z,18.27
2019-03-25T10:54:31.181Z,16.95
2019-03-25T10:57:02.368Z,16.17
2019-03-25T10:59:33.501Z,15.03
2019-03-25T11:02:04.916Z,14.70
2019-03-25T11:04:36.028Z,15.50
2019-03-25T11:07:07.295Z,15.55
2019-03-25T11:09:41.052Z,14.87
2019-03-25T11:12:12.460Z,14.65
2019-03-25T11:14:43.615Z,16.67
2019-03-25T11:17:14.885Z,15.93
2019-03-25T11:19:45.895Z,14.03
2019-03-25T11:22:16.964Z,16.00
2019-03-25T11:24:48.145Z,17.73
2019-03-25T11:27:19.358Z,15.43
2019-03-25T11:29:50.514Z,13.18
2019-03-25T11:32:21.538Z,15.68
2019-03-25T11:34:52.744Z,13.50
2019-03-25T11:37:23.863Z,14.90
2019-03-25T11:39:55.012Z,12.45
2019-03-25T11:42:26.060Z,14.20
2019-03-25T11:44:57.349Z,14.58
2019-03-25T11:47:28.680Z,13.13
2019-03-25T11:50:00.317Z,15.18
2019-03-25T11:52:31.383Z,15.25
2019-03-25T11:55:02.660Z,14.70
2019-03-25T11:57:33.983Z,13.90
2019-03-25T12:00:10.430Z,22.42
2019-03-25T12:02:44.858Z,15.95
2019-03-25T12:05:16.172Z,12.73
2019-03-25T12:07:51.042Z,15.50
2019-03-25T12:10:24.116Z,16.70
2019-03-25T12:12:55.796Z,13.62
2019-03-25T12:15:26.986Z,13.60
2019-03-25T12:18:06.239Z,13.10
2019-03-25T12:20:38.724Z,13.10
2019-03-25T12:23:14.542Z,15.38
2019-03-25T12:25:48.273Z,15.70
2019-03-25T12:28:20.863Z,16.87
2019-03-25T12:31:01.331Z,15.65
2019-03-25T12:33:33.269Z,13.90
2019-03-25T12:36:04.730Z,16.07
2019-03-25T12:38:37.737Z,22.87
2019-03-25T12:41:09.034Z,32.35
2019-03-25T12:43:40.527Z,23.90
2019-03-25T12:46:11.667Z,23.83
2019-03-25T12:48:42.797Z,22.35
2019-03-25T12:51:14.075Z,20.32
2019-03-25T12:53:45.581Z,17.65
2019-03-25T12:56:16.807Z,18.52
2019-03-25T12:58:47.980Z,25.92
2019-03-25T13:01:23.587Z,26.57
2019-03-25T13:03:54.987Z,22.20
2019-03-25T13:06:26.137Z,20.20
2019-03-25T13:09:00.379Z,27.30
2019-03-25T13:11:31.774Z,21.02
2019-03-25T13:14:03.056Z,26.82
2019-03-25T13:16:34.368Z,23.20
2019-03-25T13:19:05.568Z,24.77
2019-03-25T13:21:36.922Z,21.62
2019-03-25T13:24:10.367Z,18.92
2019-03-25T13:26:41.631Z,19.15
2019-03-25T13:29:14.292Z,17.98
2019-03-25T13:31:45.642Z,18.45
2019-03-25T13:34:16.809Z,19.37
2019-03-25T13:36:47.966Z,14.85
2019-03-25T13:39:20.191Z,15.60
2019-03-25T13:41:51.394Z,17.87
2019-03-25T13:44:22.663Z,15.20
2019-03-25T13:46:54.518Z,12.40
2019-03-25T13:49:25.738Z,16.17
2019-03-25T13:51:56.918Z,16.97
2019-03-25T13:54:27.967Z,16.15
2019-03-25T13:57:04.089Z,20.20
2019-03-25T13:59:41.762Z,17.20
2019-03-25T14:02:12.885Z,19.77
2019-03-25T14:04:43.986Z,20.50
2019-03-25T14:07:16.004Z,20.27
2019-03-25T14:09:50.143Z,23.10
2019-03-25T14:12:21.568Z,33.55
2019-03-25T14:14:52.625Z,35.70
2019-03-25T14:17:23.845Z,32.67
2019-03-25T14:19:54.862Z,33.70
2019-03-25T14:22:26.052Z,26.60
2019-03-25T14:24:57.062Z,27.90
2019-03-25T14:27:28.225Z,26.33
2019-03-25T14:29:59.373Z,30.82
2019-03-25T14:32:30.603Z,30.92
2019-03-25T14:35:01.737Z,25.92
2019-03-25T14:37:34.777Z,32.17
2019-03-25T14:40:07.865Z,26.70
2019-03-25T14:42:45.500Z,21.57
2019-03-25T14:45:26.115Z,24.32
2019-03-25T14:47:53.614Z,20.30
2019-03-25T14:50:26.180Z,28.57
2019-03-25T14:52:57.499Z,23.57
2019-03-25T14:55:31.269Z,24.98
2019-03-25T14:58:02.553Z,25.92
2019-03-25T15:00:33.677Z,18.42
2019-03-25T15:03:05.044Z,19.45
2019-03-25T15:05:36.281Z,17.87
2019-03-25T15:08:07.300Z,20.43
2019-03-25T15:10:38.355Z,16.60
2019-03-25T15:13:09.496Z,20.25
2019-03-25T15:15:40.663Z,19.73
2019-03-25T15:18:15.821Z,29.10
2019-03-25T15:20:44.543Z,20.62
2019-03-25T15:23:15.771Z,24.72
2019-03-25T15:25:46.911Z,25.88
2019-03-25T15:28:18.035Z,24.20
2019-03-25T15:30:49.150Z,25.20
2019-03-25T15:33:20.259Z,30.25
2019-03-25T15:35:52.511Z,22.93
2019-03-25T15:38:25.597Z,24.75
2019-03-25T15:40:56.671Z,26.48
2019-03-25T15:43:28.841Z,27.75
2019-03-25T15:46:00.101Z,31.23
2019-03-25T15:48:32.516Z,24.37
2019-03-25T15:51:03.706Z,30.12
2019-03-25T15:53:34.921Z,30.62
2019-03-25T15:56:06.063Z,33.08
2019-03-25T15:58:37.217Z,33.00
2019-03-25T16:01:08.297Z,30.10
2019-03-25T16:03:39.466Z,30.62
2019-03-25T16:06:10.652Z,31.70
2019-03-25T16:08:41.739Z,32.55
2019-03-25T16:11:12.750Z,33.78
2019-03-25T16:13:43.832Z,37.20
2019-03-25T16:16:15.011Z,27.10
2019-03-25T16:18:47.293Z,31.20
2019-03-25T16:21:18.517Z,29.80
2019-03-25T16:23:50.459Z,31.57
2019-03-25T16:26:23.267Z,25.57
2019-03-25T16:28:56.222Z,36.45
2019-03-25T16:31:27.259Z,26.20
2019-03-25T16:34:00.013Z,26.10
2019-03-25T16:36:31.326Z,27.02
2019-03-25T16:39:05.626Z,24.77
2019-03-25T16:41:38.331Z,24.45
2019-03-25T16:44:10.546Z,27.40
2019-03-25T16:46:41.691Z,21.65
2019-03-25T16:49:13.018Z,26.90
2019-03-25T16:51:44.200Z,23.67
2019-03-25T16:54:16.447Z,25.45
2019-03-25T16:56:47.630Z,30.37
2019-03-25T16:59:18.716Z,26.97
2019-03-25T17:01:50.021Z,26.57
2019-03-25T17:04:21.145Z,25.48
2019-03-25T17:06:52.303Z,29.20
2019-03-25T17:09:25.079Z,30.72
2019-03-25T17:11:56.308Z,29.00
2019-03-25T17:14:27.572Z,30.97
2019-03-25T17:16:58.844Z,26.77
2019-03-25T17:19:30.084Z,31.60
2019-03-25T17:22:01.194Z,28.87
2019-03-25T17:24:32.471Z,26.60
2019-03-25T17:27:06.537Z,24.57
2019-03-25T17:29:39.819Z,22.65
2019-03-25T17:32:13.883Z,22.40
2019-03-25T17:34:45.100Z,21.35
2019-03-25T17:37:17.458Z,25.32
2019-03-25T17:39:49.859Z,23.85
2019-03-25T17:42:20.999Z,23.87
2019-03-25T17:44:53.381Z,22.00
2019-03-25T17:47:24.575Z,20.43
2019-03-25T17:49:55.848Z,18.55
2019-03-25T17:52:27.237Z,23.10
2019-03-25T17:54:58.649Z,16.85
2019-03-25T17:57:30.158Z,18.48
2019-03-25T18:00:03.357Z,18.32
2019-03-25T18:02:38.719Z,20.17
2019-03-25T18:05:09.861Z,20.90
2019-03-25T18:07:42.970Z,18.48
2019-03-25T18:10:17.076Z,19.95
2019-03-25T18:12:48.228Z,22.55
2019-03-25T18:15:20.649Z,23.67
2019-03-25T18:17:51.964Z,21.40
2019-03-25T18:20:23.167Z,23.00
2019-03-25T18:22:54.833Z,18.05
2019-03-25T18:25:29.590Z,23.00
2019-03-25T18:28:00.713Z,19.92
2019-03-25T18:30:33.000Z,20.52
2019-03-25T18:33:04.245Z,22.62
2019-03-25T18:35:37.104Z,21.45
2019-03-25T18:38:08.255Z,18.60
2019-03-25T18:40:39.316Z,21.17
2019-03-25T18:43:10.581Z,21.82
2019-03-25T18:45:41.948Z,19.37
2019-03-25T18:48:13.146Z,17.30
2019-03-25T18:50:44.462Z,21.80
2019-03-25T18:53:15.599Z,22.07
2019-03-25T18:55:46.806Z,23.92
2019-03-25T18:58:18.302Z,16.60
2019-03-25T19:00:49.758Z,18.17
2019-03-25T19:03:21.051Z,18.25
2019-03-25T19:05:52.306Z,17.80
2019-03-25T19:08:23.579Z,18.80
2019-03-25T19:10:54.761Z,18.95
2019-03-25T19:13:26.508Z,17.98
2019-03-25T19:15:57.580Z,17.30
2019-03-25T19:18:28.884Z,19.32
2019-03-25T19:21:00.224Z,17.82
2019-03-25T19:23:31.274Z,16.75
2019-03-25T19:26:02.425Z,19.12
2019-03-25T19:28:33.523Z,18.55
2019-03-25T19:31:05.503Z,19.23
2019-03-25T19:33:36.617Z,20.02
2019-03-25T19:36:07.825Z,20.57
2019-03-25T19:38:38.908Z,24.20
2019-03-25T19:41:10.067Z,24.72
2019-03-25T19:43:41.353Z,21.90
2019-03-25T19:46:12.494Z,21.77
2019-03-25T19:48:43.689Z,21.90
2019-03-25T19:51:14.771Z,21.55
2019-03-25T19:53:46.246Z,29.65
2019-03-25T19:56:18.269Z,28.77
2019-03-25T19:58:49.827Z,27.05
2019-03-25T20:01:21.199Z,26.52
2019-03-25T20:03:52.344Z,27.35
2019-03-25T20:06:30.087Z,28.75
2019-03-25T20:09:01.722Z,33.67
2019-03-25T20:11:34.580Z,31.68
2019-03-25T20:14:05.587Z,29.77
2019-03-25T20:16:36.866Z,25.72
2019-03-25T20:19:08.129Z,25.52
2019-03-25T20:21:39.637Z,24.45
2019-03-25T20:24:11.004Z,24.72
2019-03-25T20:26:43.432Z,22.22
2019-03-25T20:29:14.575Z,24.70
2019-03-25T20:31:46.005Z,24.10
2019-03-25T20:34:17.267Z,27.40
2019-03-25T20:36:49.608Z,27.02
2019-03-25T20:39:21.203Z,26.15
2019-03-25T20:41:52.362Z,25.10
2019-03-25T20:44:23.793Z,31.02
2019-03-25T20:46:58.997Z,29.12
2019-03-25T20:49:31.079Z,30.97
2019-03-25T20:52:02.625Z,27.15
2019-03-25T20:54:33.746Z,29.65
2019-03-25T20:57:05.147Z,28.92
2019-03-25T20:59:36.480Z,26.50
2019-03-25T21:02:08.902Z,28.30
2019-03-25T21:04:40.193Z,30.55
2019-03-25T21:07:12.544Z,36.20
2019-03-25T21:09:43.849Z,31.20
2019-03-25T21:12:15.785Z,33.15
2019-03-25T21:14:48.103Z,37.23
2019-03-25T21:17:24.715Z,30.90
2019-03-25T21:19:57.255Z,29.85
2019-03-25T21:22:28.570Z,26.45
2019-03-25T21:24:59.784Z,33.13
2019-03-25T21:27:31.096Z,34.63
2019-03-25T21:30:02.309Z,35.30
2019-03-25T21:32:34.709Z,29.05
2019-03-25T21:35:06.768Z,26.12
2019-03-25T21:37:38.295Z,24.02
2019-03-25T21:40:11.011Z,24.35
2019-03-25T21:42:42.502Z,20.57
2019-03-25T21:45:13.558Z,23.65
2019-03-25T21:47:47.859Z,18.67
2019-03-25T21:50:19.298Z,23.92
2019-03-25T21:52:50.399Z,22.58
2019-03-25T21:55:21.646Z,20.20
2019-03-25T21:57:53.895Z,20.45
2019-03-25T22:00:26.708Z,20.75
2019-03-25T22:03:11.027Z,24.40
2019-03-25T22:05:31.251Z,20.95
2019-03-25T22:08:02.303Z,18.37
2019-03-25T22:10:34.793Z,21.33
2019-03-25T22:13:09.714Z,21.52
2019-03-25T22:15:41.074Z,17.60
2019-03-25T22:18:12.365Z,22.25
2019-03-25T22:20:43.520Z,20.00
2019-03-25T22:23:14.755Z,19.55
2019-03-25T22:25:45.875Z,16.37
2019-03-25T22:28:17.025Z,18.48
2019-03-25T22:30:48.127Z,21.23
2019-03-25T22:33:25.692Z,20.35
2019-03-25T22:35:52.034Z,24.43
2019-03-25T22:38:23.131Z,17.42
2019-03-25T22:40:54.129Z,19.20
2019-03-25T22:43:25.300Z,17.57
2019-03-25T22:45:56.580Z,18.57
2019-03-25T22:48:27.567Z,16.87
2019-03-25T22:50:58.810Z,22.35
2019-03-25T22:53:30.944Z,18.50
2019-03-25T22:56:02.074Z,18.17
2019-03-25T22:58:34.161Z,18.75
2019-03-25T23:01:05.504Z,21.25
2019-03-25T23:03:39.428Z,16.00
2019-03-25T23:06:09.422Z,18.02
2019-03-25T23:08:40.513Z,20.08
2019-03-25T23:11:13.968Z,21.27
2019-03-25T23:13:45.053Z,14.58
2019-03-25T23:16:16.257Z,15.08
2019-03-25T23:18:47.486Z,15.48
2019-03-25T23:21:18.678Z,17.98
2019-03-25T23:23:49.863Z,36.13
2019-03-25T23:26:21.129Z,17.57
2019-03-25T23:28:53.300Z,45.33
2019-03-25T23:31:24.394Z,16.02
2019-03-25T23:33:55.579Z,16.12
2019-03-25T23:36:26.805Z,18.00
2019-03-25T23:38:58.026Z,15.00
2019-03-25T23:41:29.241Z,13.75
2019-03-25T23:44:00.325Z,13.20
2019-03-25T23:46:31.395Z,17.37
2019-03-25T23:49:02.537Z,17.82
2019-03-25T23:51:33.638Z,13.53
2019-03-25T23:54:14.643Z,15.13
2019-03-25T23:56:46.056Z,17.98
2019-03-25T23:59:17.160Z,16.17
